Latest Weather Observations for St George

IDQ60801

Issued at 4:02 pm EST Sunday 18 November 2018 (issued every 10 minutes, with the page automatically refreshed every 10 minutes)

About weather observations | Map of weather stations | Latest weather observations for QLD | Other Formats
Station Details ID: 043109 Name: ST GEORGE AIRPORT Lat: -28.05 Lon: 148.59 Height: 198.5 m
Data from the previous 72 hours. | See also: Recent months at St George
Date/Time
EST
Temp
°C
App
Temp
°C
Dew
Point
°C
Rel
Hum
%
Delta-T
°C
Wind Press
QNH
hPa
Press
MSL
hPa
Rain since
9am
mm
Dir  Spd
km/h
Gust
km/h
Spd
kts
Gust
kts
18/04:00pm 33.0 29.6 10.4 25 13.2 E 19 30 10 16 1009.6 1008.6 0.0
18/03:30pm 33.4 30.1 9.4 23 13.8 ESE 17 22 9 12 1009.6 1008.6 0.0
18/03:00pm 32.9 29.6 10.9 26 12.9 SE 19 26 10 14 1010.3 1009.3 0.0
18/02:30pm 34.1 31.1 10.7 24 13.7 E 17 32 9 17 1010.6 1009.6 0.0
18/02:00pm 32.7 29.5 10.1 25 13.1 NNE 17 24 9 13 1011.5 1010.4 0.0
18/01:30pm 32.8 30.6 10.8 26 12.9 NE 13 22 7 12 1012.3 1011.2 0.0
18/01:00pm 32.8 30.9 11.9 28 12.4 NNE 13 26 7 14 1013.0 1011.9 0.0
18/12:30pm 31.6 29.0 11.9 30 11.7 NNE 17 28 9 15 1013.4 1012.3 0.0
18/12:00pm 31.5 29.8 13.7 33 10.8 NE 15 24 8 13 1013.8 1012.8 0.0
18/11:30am 29.9 27.7 13.2 36 10.0 NNE 17 24 9 13 1014.2 1013.2 0.0
18/11:00am 29.6 26.9 13.4 37 9.7 NE 20 28 11 15 1014.6 1013.6 0.0
18/10:30am 28.3 25.8 13.4 40 8.9 NNE 19 33 10 18 1014.9 1013.9 0.0
18/10:00am 27.4 24.7 13.4 42 8.3 NE 20 33 11 18 1015.3 1014.3 0.0
18/09:30am 27.0 24.3 14.7 47 7.5 NE 22 33 12 18 1015.3 1014.3 0.0
18/09:00am 25.7 23.3 14.5 50 6.7 NE 20 32 11 17 1015.3 1014.3 -
18/08:30am 25.3 22.4 15.0 53 6.2 NE 24 39 13 21 1015.4 1014.4 -
18/08:00am 24.4 21.4 14.8 55 5.8 NE 24 37 13 20 1015.3 1014.3 -
18/07:30am 23.4 20.1 14.9 59 5.1 ENE 26 37 14 20 1015.2 1014.2 -
18/07:00am 22.4 18.6 14.8 62 4.5 ENE 28 39 15 21 1014.9 1013.9 -
18/06:30am 21.6 16.9 14.3 63 4.3 ENE 32 43 17 23 1014.7 1013.7 -
18/06:00am 21.0 18.2 14.4 66 3.9 ENE 22 32 12 17 1014.4 1013.4 -
18/05:30am 20.7 17.6 14.4 67 3.7 ENE 24 33 13 18 1014.1 1013.1 -
18/05:00am 20.7 17.8 14.1 66 3.9 ENE 22 33 12 18 1013.6 1012.6 -
18/04:30am 20.9 18.4 14.1 65 4.0 ENE 20 30 11 16 1013.1 1012.0 -
18/04:00am 21.2 17.9 14.1 64 4.2 ENE 24 33 13 18 1012.7 1011.6 -
18/03:30am 21.6 18.6 13.8 61 4.6 ENE 22 35 12 19 1012.5 1011.4 -
18/03:00am 22.0 18.5 13.4 58 5.0 ENE 24 33 13 18 1012.3 1011.2 -
18/02:30am 22.5 19.0 13.3 56 5.4 ENE 24 39 13 21 1012.3 1011.2 -
18/02:00am 23.0 19.4 13.2 54 5.7 ENE 24 33 13 18 1012.0 1010.9 -
18/01:30am 23.8 19.7 6.1 32 9.1 ESE 17 24 9 13 1011.9 1010.8 -
18/01:00am 23.8 17.8 3.2 26 10.1 SE 24 30 13 16 1012.1 1011.0 -
18/12:30am 24.1 19.1 1.1 22 10.8 SSE 17 20 9 11 1012.4 1011.3 -
18/12:00am 25.0 19.5 0.5 20 11.5 SSE 19 24 10 13 1012.6 1011.5 -
 
Date/Time
EST
Temp
°C
App
Temp
°C
Dew
Point
°C
Rel
Hum
%
Delta-T
°C
Wind Press
QNH
hPa
Press
MSL
hPa
Rain since
9am
mm
Dir  Spd
km/h
Gust
km/h
Spd
kts
Gust
kts
17/11:30pm 24.6 21.0 2.7 24 10.7 S 11 17 6 9 1012.8 1011.7 -
17/11:00pm 25.1 20.7 2.5 23 11.0 S 15 17 8 9 1012.8 1011.7 -
17/10:30pm 25.2 21.3 3.2 24 10.9 S 13 15 7 8 1012.7 1011.6 -
17/10:00pm 25.1 21.6 3.7 25 10.7 S 11 11 6 6 1012.8 1011.7 -
17/09:30pm 25.6 22.2 4.1 25 10.8 SSE 11 11 6 6 1012.7 1011.6 0.0
17/09:00pm 26.7 23.5 3.2 22 11.7 SSE 9 11 5 6 1012.5 1011.4 0.0
17/08:30pm 27.3 23.7 3.1 21 12.1 SSE 11 13 6 7 1012.2 1011.1 0.0
17/08:00pm 28.5 24.5 2.7 19 12.9 SSE 13 15 7 8 1011.8 1010.7 0.0
17/07:30pm 29.3 25.2 2.5 18 13.4 S 13 15 7 8 1011.4 1010.3 0.0
17/07:00pm 30.2 26.5 2.5 17 14.0 S 11 13 6 7 1011.1 1010.0 0.0
17/06:30pm 31.9 26.9 1.1 14 15.3 SSW 17 22 9 12 1010.7 1009.7 0.0
17/06:00pm 32.7 28.0 0.7 13 15.9 SW 15 22 8 12 1010.3 1009.3 0.0
17/05:30pm 33.7 28.3 1.5 13 16.3 S 19 28 10 15 1009.9 1008.9 0.0
17/05:00pm 34.4 29.1 2.0 13 16.6 SSW 19 28 10 15 1009.8 1008.8 0.0
17/04:30pm 34.1 29.4 0.7 12 16.7 SSW 15 26 8 14 1009.8 1008.8 0.0
17/04:00pm 34.9 28.6 1.3 12 17.1 SSW 24 37 13 20 1009.8 1008.8 0.0
17/03:30pm 33.4 28.4 1.3 13 16.2 SW 17 30 9 16 1010.2 1009.2 0.0
17/03:00pm 34.4 29.9 2.0 13 16.6 SW 15 26 8 14 1010.3 1009.3 0.0
17/02:30pm 34.0 29.4 1.7 13 16.4 S 15 26 8 14 1010.7 1009.7 0.0
17/02:00pm 34.3 29.8 2.0 13 16.6 WSW 15 22 8 12 1011.4 1010.3 0.0
17/01:30pm 34.0 30.0 2.8 14 16.2 SSW 13 22 7 12 1011.8 1010.7 0.0
17/01:00pm 32.9 27.4 0.9 13 16.0 WSW 19 24 10 13 1012.4 1011.3 0.0
17/12:30pm 34.0 29.8 1.7 13 16.4 SSW 13 20 7 11 1012.5 1011.4 0.0
17/12:00pm 34.1 30.3 1.8 13 16.5 SSW 11 20 6 11 1012.8 1011.7 0.0
17/11:30am 34.2 29.5 0.8 12 16.8 NW 15 28 8 15 1013.3 1012.2 0.0
17/11:00am 33.2 30.1 1.1 13 16.1 ENE 7 11 4 6 1013.6 1012.6 0.0
17/10:30am 32.6 28.6 2.6 15 15.4 WSW 13 20 7 11 1013.9 1012.9 0.0
17/10:00am 31.5 27.8 4.3 18 14.2 WSW 13 17 7 9 1014.1 1013.1 0.0
17/09:30am 30.2 27.4 6.8 23 12.7 SSW 11 17 6 9 1014.4 1013.4 0.0
17/09:00am 28.4 25.4 5.9 24 11.9 SW 11 17 6 9 1014.7 1013.7 0.0
17/08:30am 27.4 25.2 6.2 26 11.2 W 7 13 4 7 1014.7 1013.7 0.0
17/08:00am 26.3 24.0 5.8 27 10.7 WNW 7 13 4 7 1014.4 1013.4 0.0
17/07:30am 25.5 22.9 6.2 29 10.1 NNE 9 13 5 7 1014.2 1013.2 0.0
17/07:00am 24.1 21.1 5.9 31 9.4 E 11 15 6 8 1013.6 1012.6 0.0
17/06:30am 22.7 20.5 6.0 34 8.5 SSE 7 9 4 5 1013.5 1012.5 0.0
17/06:00am 20.8 18.8 6.4 39 7.3 S 6 9 3 5 1013.2 1012.1 0.0
17/05:30am 17.7 17.1 7.2 50 5.3 CALM 0 0 0 0 1013.0 1011.9 0.0
17/05:00am 18.6 17.4 4.4 39 6.8 CALM 0 0 0 0 1012.5 1011.4 0.0
17/04:30am 19.2 17.1 3.8 36 7.4 SSE 4 6 2 3 1012.4 1011.3 0.0
17/04:00am 19.8 17.3 4.7 37 7.4 SSE 7 9 4 5 1012.1 1011.0 0.0
17/03:30am 19.9 17.1 3.2 33 7.9 SSE 7 9 4 5 1012.0 1010.9 0.0
17/03:00am 21.1 18.2 2.4 29 8.8 SE 7 9 4 5 1011.9 1010.8 0.0
17/02:30am 21.6 18.6 2.3 28 9.1 SSE 7 9 4 5 1012.0 1010.9 0.0
17/02:00am 22.0 18.7 2.2 27 9.4 SSE 9 9 5 5 1012.0 1010.9 0.0
17/01:30am 22.5 19.0 1.5 25 9.8 SSE 9 13 5 7 1012.2 1011.1 0.0
17/01:00am 23.6 20.0 0.7 22 10.7 SE 9 11 5 6 1012.5 1011.4 0.0
17/12:30am 25.0 19.9 0.5 20 11.5 SSE 17 24 9 13 1012.6 1011.5 0.0
17/12:00am 25.7 20.2 0.4 19 11.9 SSE 19 24 10 13 1013.2 1012.1 0.0
 
Date/Time
EST
Temp
°C
App
Temp
°C
Dew
Point
°C
Rel
Hum
%
Delta-T
°C
Wind Press
QNH
hPa
Press
MSL
hPa
Rain since
9am
mm
Dir  Spd
km/h
Gust
km/h
Spd
kts
Gust
kts
16/11:30pm 26.4 20.8 0.9 19 12.2 SSE 20 26 11 14 1013.4 1012.3 0.0
16/11:00pm 25.5 21.5 2.9 23 11.1 SSE 13 17 7 9 1013.8 1012.8 0.0
16/10:30pm 26.0 22.6 3.9 24 11.1 S 11 13 6 7 1013.8 1012.8 0.0
16/10:00pm 26.7 23.8 4.5 24 11.3 SSE 9 13 5 7 1013.8 1012.8 0.0
16/09:30pm 27.3 24.2 3.7 22 11.9 S 9 11 5 6 1013.8 1012.8 0.0
16/09:00pm 28.8 24.9 3.6 20 12.8 S 13 15 7 8 1013.5 1012.5 0.0
16/08:30pm 29.1 25.4 4.6 21 12.7 SSW 13 17 7 9 1013.1 1012.0 0.0
16/08:00pm 29.8 26.1 4.4 20 13.2 S 13 17 7 9 1012.6 1011.5 0.0
16/07:30pm 30.2 26.8 4.0 19 13.5 S 11 13 6 7 1012.2 1011.1 0.0
16/07:00pm 31.6 27.7 3.6 17 14.5 SSW 13 17 7 9 1012.0 1010.9 0.0
16/06:30pm 32.7 29.2 3.6 16 15.2 SSW 11 15 6 8 1011.8 1010.7 0.0
16/06:00pm 34.2 29.1 2.9 14 16.3 SW 19 24 10 13 1011.6 1010.5 0.0
16/05:30pm 35.3 30.3 3.8 14 16.7 WSW 19 30 10 16 1011.4 1010.3 0.0
16/05:00pm 35.5 30.6 3.9 14 16.8 WSW 19 24 10 13 1011.2 1010.1 0.0
16/04:30pm 36.0 30.9 4.3 14 17.0 W 20 30 11 16 1011.1 1010.0 0.0
16/04:00pm 36.0 30.9 3.3 13 17.3 WSW 19 28 10 15 1011.3 1010.2 0.0
16/03:30pm 35.9 29.9 3.2 13 17.2 W 24 32 13 17 1011.3 1010.2 0.0
16/03:00pm 35.4 30.3 3.9 14 16.7 SSW 20 35 11 19 1011.8 1010.7 0.0
16/02:30pm 36.1 31.3 4.4 14 17.0 W 19 39 10 21 1012.1 1011.0 0.0
16/02:00pm 35.5 31.7 3.9 14 16.8 SW 13 28 7 15 1012.6 1011.5 0.0
16/01:30pm 35.3 30.3 3.8 14 16.7 WSW 19 32 10 17 1013.0 1011.9 0.0
16/01:00pm 34.5 28.5 3.1 14 16.4 WSW 24 35 13 19 1013.4 1012.3 0.0
16/12:30pm 35.1 30.1 3.6 14 16.6 W 19 37 10 20 1013.8 1012.8 0.0
16/12:00pm 35.3 31.9 5.7 16 16.2 WSW 13 20 7 11 1014.2 1013.2 0.0
16/11:30am 34.3 31.4 4.9 16 15.8 WNW 9 20 5 11 1014.8 1013.8 0.0
16/11:00am 33.5 30.3 3.3 15 15.7 WSW 9 17 5 9 1015.2 1014.2 0.0
16/10:30am 32.8 29.5 4.6 17 14.9 WSW 11 15 6 8 1015.5 1014.5 0.0
16/10:00am 32.4 30.1 5.8 19 14.3 NW 7 13 4 7 1015.9 1014.9 0.0
16/09:30am 31.3 28.1 4.9 19 13.9 NNE 11 19 6 10 1016.0 1015.0 0.0
16/09:00am 31.0 28.6 6.8 22 13.1 N 9 13 5 7 1016.0 1015.0 0.0
16/08:30am 28.9 26.7 6.3 24 12.0 NNW 7 13 4 7 1016.0 1015.0 0.0
16/08:00am 28.1 25.5 6.2 25 11.6 NE 9 11 5 6 1016.2 1015.1 0.0
16/07:30am 26.6 25.3 6.1 27 10.7 NNE 2 9 1 5 1016.0 1015.0 0.0
16/07:00am 25.3 22.0 6.5 30 9.8 SE 13 15 7 8 1015.7 1014.7 0.0
16/06:30am 23.3 21.8 7.0 35 8.5 S 4 9 2 5 1015.5 1014.5 0.0
16/06:00am 20.8 20.3 7.8 43 6.8 CALM 0 0 0 0 1015.6 1014.6 0.0
16/05:30am 19.3 17.7 8.0 48 5.9 E 6 9 3 5 1015.3 1014.3 0.0
16/05:00am 19.8 17.9 6.9 43 6.6 SSE 6 7 3 4 1014.9 1013.9 0.0
16/04:30am 20.3 18.3 7.0 42 6.8 SSE 7 9 4 5 1014.6 1013.6 0.0
16/04:00am 20.8 17.8 6.0 38 7.5 SE 11 13 6 7 1014.5 1013.5 0.0
16/03:30am 21.8 18.8 6.1 36 8.0 SSE 11 15 6 8 1014.4 1013.4 0.0
16/03:00am 23.0 19.2 5.9 33 8.7 SE 15 20 8 11 1014.4 1013.4 0.0
16/02:30am 23.9 19.8 6.2 32 9.1 SSE 17 22 9 12 1014.5 1013.5 0.0
16/02:00am 22.9 20.4 6.6 35 8.4 SE 9 11 5 6 1014.6 1013.6 0.0
16/01:30am 22.5 20.6 6.7 36 8.2 ESE 6 7 3 4 1014.7 1013.7 0.0
16/01:00am 24.2 20.9 6.5 32 9.2 SSE 13 17 7 9 1014.9 1013.9 0.0
16/12:30am 22.7 20.5 8.0 39 7.8 S 9 11 5 6 1015.0 1014.0 0.0
16/12:00am 23.3 21.4 7.4 36 8.4 SE 7 9 4 5 1015.2 1014.2 0.0
 
Date/Time
EST
Temp
°C
App
Temp
°C
Dew
Point
°C
Rel
Hum
%
Delta-T
°C
Wind Press
QNH
hPa
Press
MSL
hPa
Rain since
9am
mm
Dir  Spd
km/h
Gust
km/h
Spd
kts
Gust
kts
15/11:30pm 23.1 20.7 6.8 35 8.5 SSE 9 9 5 5 1015.3 1014.3 0.0
15/11:00pm 24.8 22.1 5.6 29 9.9 SE 9 9 5 5 1015.3 1014.3 0.0
15/10:30pm 26.2 23.6 6.3 28 10.4 SE 9 13 5 7 1015.3 1014.3 0.0
15/10:00pm 26.7 23.7 6.2 27 10.8 ESE 11 13 6 7 1015.5 1014.5 0.0
15/09:30pm 25.7 22.9 6.8 30 10.0 SSE 11 13 6 7 1015.7 1014.7 0.0
15/09:00pm 26.3 23.8 6.4 28 10.5 SE 9 11 5 6 1015.5 1014.5 0.0
15/08:30pm 26.7 23.9 5.1 25 11.1 S 9 11 5 6 1015.3 1014.3 0.0
15/08:00pm 26.7 24.1 6.2 27 10.8 S 9 11 5 6 1015.0 1014.0 0.0
15/07:30pm 27.8 25.4 5.4 24 11.7 S 7 9 4 5 1014.7 1013.7 0.0
15/07:00pm 30.0 27.0 3.9 19 13.4 S 9 11 5 6 1014.4 1013.4 0.0
15/06:30pm 31.1 28.2 4.8 19 13.8 S 9 9 5 5 1014.2 1013.2 0.0
15/06:00pm 32.7 29.4 4.5 17 14.9 S 11 15 6 8 1013.9 1012.9 0.0
15/05:30pm 33.5 29.4 4.2 16 15.5 S 15 20 8 11 1013.7 1012.7 0.0
15/05:00pm 33.9 29.8 4.6 16 15.6 SW 15 20 8 11 1013.5 1012.5 0.0
15/04:30pm 34.1 30.8 4.7 16 15.7 SSE 11 20 6 11 1013.5 1012.5 0.0

Other Formats:

Comma delimited format used in spreadsheet applications
http://www.bom.gov.au/fwo/IDQ60801/IDQ60801.94517.axf

JavaScript Object Notation format (JSON) in row-major order
http://www.bom.gov.au/fwo/IDQ60801/IDQ60801.94517.json